Time;durP1;ratioP1;P1;durP2;ratioP2;P2;SDS_P1;SDS_P2;PMS_P1;PMS_P2;Temp;Humidity;BMP_temperature;BMP_pressure;BME280_temperature;BME280_humidity;BME280_pressure;Samples;Min_cycle;Max_cycle;Signal;HPM_P1;HPM_P2
2022/05/10 00:01:00;;;;;;;;;25.33;23.33;;;;;21.90;41.95;101526.31;5059124;28;45502;-76
2022/05/10 00:03:34;;;;;;;;;20.00;19.33;;;;;22.22;41.87;101595.53;5039531;28;46488;-77
2022/05/10 00:06:00;;;;;;;;;20.33;19.67;;;;;22.42;42.17;101631.38;5058852;28;45537;-76
2022/05/10 00:08:26;;;;;;;;;26.67;21.33;;;;;22.39;42.29;101627.00;5058706;28;45520;-76
2022/05/10 00:10:52;;;;;;;;;24.33;24.33;;;;;22.35;42.48;101629.81;5058255;28;45445;-73
2022/05/10 00:13:18;;;;;;;;;26.33;24.00;;;;;21.81;43.09;101551.53;5054878;28;46282;-74
2022/05/10 00:15:44;;;;;;;;;23.33;22.00;;;;;21.58;43.19;101513.13;5055966;28;45429;-75
2022/05/10 00:18:16;;;;;;;;;25.00;22.33;;;;;21.90;43.14;101574.34;5040843;28;45955;-77
2022/05/10 00:20:43;;;;;;;;;21.00;19.67;;;;;22.20;43.05;101623.16;5047021;28;45527;-74
2022/05/10 00:23:09;;;;;;;;;22.67;20.67;;;;;22.06;43.17;101598.72;5057866;28;46390;-76
2022/05/10 00:25:34;;;;;;;;;24.67;23.00;;;;;22.14;43.30;101613.56;5057374;28;45485;-78
2022/05/10 00:28:00;;;;;;;;;26.33;24.67;;;;;21.20;43.33;101468.97;5057316;28;45607;-76
2022/05/10 00:30:27;;;;;;;;;24.00;21.67;;;;;21.60;43.93;101545.06;5058495;28;45518;-77
2022/05/10 00:32:53;;;;;;;;;31.00;23.00;;;;;21.06;44.25;101473.84;5057604;28;46448;-76
2022/05/10 00:35:26;;;;;;;;;23.33;23.33;;;;;21.45;44.46;101546.41;5057834;28;45588;-77
2022/05/10 00:37:55;;;;;;;;;29.00;24.00;;;;;21.79;44.54;101620.03;5044970;28;45423;-78
2022/05/10 00:40:24;;;;;;;;;22.33;21.67;;;;;21.78;44.57;101604.91;5040760;28;45492;-77
2022/05/10 00:42:58;;;;;;;;;28.67;23.33;;;;;21.10;44.78;101510.13;5058520;28;46155;-75
2022/05/10 00:45:34;;;;;;;;;25.00;24.00;;;;;21.10;45.41;101521.66;5058076;28;45529;-78
2022/05/10 00:48:12;;;;;;;;;31.33;27.67;;;;;21.46;45.65;101608.59;5059481;28;45488;-78
2022/05/10 00:50:47;;;;;;;;;26.67;25.00;;;;;21.39;45.84;101595.44;5064916;28;45355;-76
2022/05/10 00:53:18;;;;;;;;;27.00;25.33;;;;;21.40;45.80;101604.28;5069307;28;45466;-75
2022/05/10 00:55:46;;;;;;;;;29.00;24.33;;;;;21.40;45.86;101601.63;5064172;28;45465;-79
2022/05/10 00:58:14;;;;;;;;;27.00;26.67;;;;;21.41;45.96;101589.19;5041192;28;45423;-74
2022/05/10 01:00:40;;;;;;;;;25.33;24.00;;;;;21.42;45.99;101588.25;5059358;28;45486;-78
2022/05/10 01:03:30;;;;;;;;;24.67;23.33;;;;;21.23;46.03;101543.47;5058680;28;45682;-76
2022/05/10 01:06:16;;;;;;;;;26.00;24.33;;;;;21.07;46.04;101526.19;5051823;28;45541;-77
2022/05/10 01:09:02;;;;;;;;;29.33;25.00;;;;;21.36;45.96;101574.19;5041794;28;45277;-74
2022/05/10 01:11:42;;;;;;;;;28.67;23.33;;;;;20.88;46.46;101505.44;5038207;28;45233;-75
2022/05/10 01:14:16;;;;;;;;;27.67;26.67;;;;;21.01;46.30;101531.72;5038151;28;46589;-76
2022/05/10 01:16:42;;;;;;;;;23.67;22.33;;;;;20.83;46.66;101514.47;5037763;28;45558;-77
2022/05/10 01:19:08;;;;;;;;;29.00;27.00;;;;;20.73;46.53;101497.88;5020545;28;45426;-78
2022/05/10 01:21:44;;;;;;;;;28.67;26.00;;;;;21.14;46.97;101570.38;5039189;28;45389;-81
2022/05/10 01:24:19;;;;;;;;;27.00;23.33;;;;;21.10;46.87;101560.75;5043203;28;47119;-75
2022/05/10 01:27:20;;;;;;;;;29.33;25.00;;;;;20.44;47.17;101459.59;5069750;28;45464;-77
2022/05/10 01:30:24;;;;;;;;;28.00;26.33;;;;;20.96;47.40;101559.34;5063069;28;45537;-78
2022/05/10 01:35:52;;;;;;;;;21.67;21.67;;;;;20.89;47.86;101563.09;5057078;28;45411;-78
2022/05/10 01:38:29;;;;;;;;;25.00;21.67;;;;;20.88;47.42;101560.47;5057115;28;45381;-77
2022/05/10 01:41:04;;;;;;;;;25.33;22.00;;;;;20.85;47.64;101553.44;5057975;28;45364;-76
2022/05/10 01:43:42;;;;;;;;;26.67;26.67;;;;;20.48;48.23;101497.66;5057841;28;45452;-75
2022/05/10 01:46:14;;;;;;;;;25.33;24.33;;;;;20.36;48.28;101509.50;5057151;28;45566;-77
2022/05/10 01:48:45;;;;;;;;;28.33;28.00;;;;;19.95;48.50;101441.41;5057510;28;45466;-75
2022/05/10 01:51:22;;;;;;;;;30.00;28.00;;;;;20.61;48.61;101554.09;5058300;28;45453;-76
2022/05/10 01:53:48;;;;;;;;;30.67;27.33;;;;;20.13;48.65;101479.03;5057723;28;45395;-76
2022/05/10 01:56:19;;;;;;;;;25.33;24.67;;;;;20.56;48.93;101551.56;5057203;28;45398;-76
2022/05/10 01:58:47;;;;;;;;;24.33;22.67;;;;;20.59;48.47;101546.16;5056735;28;45528;-76
2022/05/10 02:01:19;;;;;;;;;24.00;24.00;;;;;20.57;48.99;101545.31;5057168;28;45446;-76
2022/05/10 02:04:09;;;;;;;;;28.33;25.33;;;;;20.57;49.02;101541.78;5057082;28;45472;-75
2022/05/10 02:06:35;;;;;;;;;27.67;26.33;;;;;20.59;48.77;101540.84;5056951;28;46274;-76
2022/05/10 02:09:39;;;;;;;;;28.67;26.33;;;;;20.52;49.12;101545.44;5057035;28;45362;-76
2022/05/10 02:12:11;;;;;;;;;30.67;27.00;;;;;20.11;49.29;101480.00;5057687;28;45411;-75
2022/05/10 02:15:07;;;;;;;;;23.67;22.67;;;;;19.97;49.35;101461.72;5058840;28;45397;-77
2022/05/10 02:17:50;;;;;;;;;24.67;24.00;;;;;20.07;49.50;101479.22;5059557;28;46180;-75
2022/05/10 02:20:30;;;;;;;;;26.00;26.00;;;;;20.42;49.63;101533.28;5060346;28;45513;-77
2022/05/10 02:23:05;;;;;;;;;26.67;24.67;;;;;20.33;49.71;101530.84;5042174;28;45541;-75
2022/05/10 02:25:39;;;;;;;;;29.33;26.67;;;;;20.11;49.77;101511.91;5042093;28;45465;-75
2022/05/10 02:28:38;;;;;;;;;29.00;27.00;;;;;19.97;50.26;101498.09;5060235;28;46135;-73
2022/05/10 02:31:14;;;;;;;;;32.33;25.33;;;;;20.15;50.29;101534.00;5042438;28;45485;-75
2022/05/10 02:33:42;;;;;;;;;26.33;25.00;;;;;20.09;50.74;101527.03;5060387;28;46726;-74
2022/05/10 02:36:08;;;;;;;;;32.50;28.75;;;;;20.02;50.70;101538.72;5058838;28;45564;-74
2022/05/10 02:38:37;;;;;;;;;28.75;28.25;;;;;19.84;51.02;101514.34;5057239;28;45474;-75
2022/05/10 02:41:19;;;;;;;;;35.00;30.25;;;;;19.87;51.52;101532.00;5060508;28;45569;-74
2022/05/10 02:43:56;;;;;;;;;32.33;28.33;;;;;19.22;51.41;101432.53;5061831;28;45487;-75
2022/05/10 02:46:24;;;;;;;;;31.00;27.50;;;;;19.72;51.93;101522.63;5062201;28;45437;-74
2022/05/10 02:48:50;;;;;;;;;31.00;27.75;;;;;19.16;51.89;101437.09;5042682;28;46769;-76
2022/05/10 02:51:17;;;;;;;;;26.75;25.75;;;;;19.58;52.00;101511.41;5057264;28;45488;-74
2022/05/10 02:53:43;;;;;;;;;34.50;31.00;;;;;19.70;52.30;101521.78;5039056;28;45485;-76
2022/05/10 02:56:15;;;;;;;;;32.75;27.75;;;;;18.69;52.16;101354.03;5039414;28;45395;-77
2022/05/10 02:58:59;;;;;;;;;30.75;29.25;;;;;19.48;52.26;101500.97;5056972;28;46279;-78
2022/05/10 03:01:38;;;;;;;;;34.50;29.00;;;;;19.35;52.14;101483.56;5056963;28;45432;-75
2022/05/10 03:04:06;;;;;;;;;29.00;27.50;;;;;19.05;52.92;101437.31;5057019;28;45446;-75
2022/05/10 03:06:33;;;;;;;;;30.50;27.75;;;;;19.47;52.79;101512.50;5056324;28;45426;-76
2022/05/10 03:09:00;;;;;;;;;28.50;28.00;;;;;19.33;52.66;101477.41;5057401;28;45825;-78
2022/05/10 03:11:27;;;;;;;;;28.75;26.75;;;;;19.11;52.58;101431.88;5060354;28;45465;-75
2022/05/10 03:13:53;;;;;;;;;32.75;30.00;;;;;18.91;52.75;101411.09;5059710;28;45581;-76
2022/05/10 03:16:20;;;;;;;;;30.00;30.00;;;;;19.08;52.81;101450.53;5060254;28;45430;-76
2022/05/10 03:18:46;;;;;;;;;28.00;25.25;;;;;19.39;53.45;101489.69;5060225;28;46279;-74
2022/05/10 03:21:12;;;;;;;;;30.75;28.00;;;;;18.88;52.75;101408.50;5060843;28;45371;-75
2022/05/10 03:23:39;;;;;;;;;32.25;30.50;;;;;18.58;53.29;101371.06;5065435;28;45515;-76
2022/05/10 03:26:05;;;;;;;;;34.25;31.25;;;;;19.43;53.00;101499.31;5059825;28;45496;-74
2022/05/10 03:28:31;;;;;;;;;30.25;29.75;;;;;18.82;53.00;101409.50;5058985;28;46077;-75
2022/05/10 03:30:57;;;;;;;;;27.50;26.25;;;;;19.14;53.28;101457.50;5059369;28;45757;-76
2022/05/10 03:33:22;;;;;;;;;29.75;27.75;;;;;19.34;53.28;101491.56;5041634;28;45422;-76
2022/05/10 03:35:48;;;;;;;;;33.75;31.25;;;;;19.32;53.29;101488.97;5060688;28;45450;-75
2022/05/10 03:38:14;;;;;;;;;28.75;27.00;;;;;19.23;53.14;101470.56;5043193;28;47004;-76
2022/05/10 03:40:40;;;;;;;;;28.50;26.50;;;;;18.75;53.19;101407.00;5060101;28;45665;-76
2022/05/10 03:43:08;;;;;;;;;30.00;27.75;;;;;18.36;53.28;101335.28;5059484;28;45509;-76
2022/05/10 03:45:34;;;;;;;;;30.25;26.00;;;;;19.10;53.16;101459.34;5059989;28;45430;-74
2022/05/10 03:48:00;;;;;;;;;31.50;28.75;;;;;18.64;53.40;101394.81;5059348;28;45503;-74
2022/05/10 03:50:26;;;;;;;;;31.75;29.75;;;;;19.20;53.90;101487.44;5040858;28;45422;-75
2022/05/10 03:52:52;;;;;;;;;32.25;30.50;;;;;19.19;53.56;101475.06;5058631;28;45520;-74
2022/05/10 03:55:21;;;;;;;;;27.00;26.00;;;;;18.52;53.79;101363.22;5059756;28;45374;-74
2022/05/10 03:57:46;;;;;;;;;33.75;31.50;;;;;19.18;53.93;101485.72;5058642;28;46296;-75
2022/05/10 04:00:16;;;;;;;;;33.75;32.75;;;;;18.90;53.74;101443.84;5058571;28;45488;-73
2022/05/10 04:02:42;;;;;;;;;28.50;26.50;;;;;19.16;53.77;101474.25;5058940;28;45441;-74
2022/05/10 04:05:09;;;;;;;;;29.25;27.25;;;;;18.67;53.58;101396.50;5059189;28;45503;-74
2022/05/10 04:07:34;;;;;;;;;29.25;26.25;;;;;18.55;53.58;101392.34;5041741;28;47227;-74
2022/05/10 04:10:00;;;;;;;;;35.75;30.50;;;;;19.15;53.64;101472.50;5057666;28;45271;-73
2022/05/10 04:12:26;;;;;;;;;32.75;26.75;;;;;19.13;53.75;101475.22;5057941;28;45344;-73
2022/05/10 04:14:52;;;;;;;;;30.50;28.75;;;;;18.54;53.72;101373.81;5041519;28;45406;-74
2022/05/10 04:17:17;;;;;;;;;29.75;28.00;;;;;19.13;53.63;101477.00;5059011;28;46149;-73
2022/05/10 04:19:43;;;;;;;;;32.00;28.25;;;;;19.15;53.70;101491.09;5058241;28;45481;-76
2022/05/10 04:22:09;;;;;;;;;26.67;24.33;;;;;18.56;53.28;101367.56;5059189;28;45792;-75
2022/05/10 04:24:35;;;;;;;;;29.00;26.67;;;;;18.92;53.18;101431.41;5059148;28;45351;-75
2022/05/10 04:27:01;;;;;;;;;25.50;25.50;;;;;19.04;52.76;101448.84;5058214;28;46241;-74
2022/05/10 04:29:28;;;;;;;;;25.67;25.67;;;;;19.15;52.74;101459.22;5058579;28;45513;-73
2022/05/10 04:31:53;;;;;;;;;24.33;23.00;;;;;19.09;52.46;101446.09;5059031;28;45399;-73
2022/05/10 04:34:20;;;;;;;;;30.25;28.25;;;;;19.29;52.13;101473.06;5060736;28;45239;-73
2022/05/10 04:36:46;;;;;;;;;30.00;27.25;;;;;19.31;52.58;101473.91;5060077;28;45398;-73
2022/05/10 04:39:11;;;;;;;;;32.50;31.25;;;;;19.28;52.61;101476.66;5058743;28;45340;-73
2022/05/10 04:41:42;;;;;;;;;27.50;26.50;;;;;19.23;52.54;101479.41;5056991;28;45478;-73
2022/05/10 04:44:10;;;;;;;;;30.75;29.25;;;;;18.74;52.84;101386.66;5058737;28;45395;-73
2022/05/10 04:46:38;;;;;;;;;33.00;30.00;;;;;18.48;52.69;101350.06;5058153;28;45347;-73
2022/05/10 04:49:06;;;;;;;;;32.75;30.75;;;;;19.22;52.75;101487.38;5058211;28;45354;-75
2022/05/10 04:51:33;;;;;;;;;29.25;27.25;;;;;19.18;52.52;101481.28;5039793;28;45462;-74
2022/05/10 04:53:59;;;;;;;;;34.00;28.75;;;;;18.72;52.79;101399.06;5057770;28;45620;-75
2022/05/10 04:56:25;;;;;;;;;31.00;29.00;;;;;19.17;52.52;101479.56;5057881;28;46497;-75
2022/05/10 04:58:54;;;;;;;;;29.00;27.00;;;;;19.16;52.60;101479.56;5057954;28;45327;-75
2022/05/10 05:01:25;;;;;;;;;28.50;28.00;;;;;19.14;52.90;101487.56;5057972;28;45374;-74
2022/05/10 05:03:50;;;;;;;;;32.75;27.50;;;;;18.19;53.04;101339.13;5040291;28;45588;-75
2022/05/10 05:06:17;;;;;;;;;26.50;25.00;;;;;18.96;53.04;101470.25;5057846;28;46559;-74
2022/05/10 05:08:43;;;;;;;;;33.50;28.25;;;;;18.60;52.69;101403.75;5057843;28;45377;-75
2022/05/10 05:11:12;;;;;;;;;29.50;29.50;;;;;18.97;52.79;101468.47;5057868;28;45429;-72
2022/05/10 05:13:37;;;;;;;;;32.00;29.25;;;;;18.95;52.74;101457.88;5057842;28;45549;-75
2022/05/10 05:16:03;;;;;;;;;31.75;25.75;;;;;19.07;52.78;101481.50;5057315;28;46173;-73
2022/05/10 05:18:29;;;;;;;;;29.00;28.25;;;;;18.67;52.61;101417.75;5058268;28;45588;-75
2022/05/10 05:20:55;;;;;;;;;30.25;27.75;;;;;18.75;52.68;101430.88;5052101;28;45639;-74
2022/05/10 05:23:22;;;;;;;;;29.75;28.50;;;;;18.91;52.49;101455.31;5038275;28;45423;-74
2022/05/10 05:25:49;;;;;;;;;25.00;23.67;;;;;18.53;52.40;101378.25;5037712;28;46636;-74
2022/05/10 05:28:15;;;;;;;;;26.25;25.25;;;;;19.16;52.03;101490.19;5036112;28;45444;-74
2022/05/10 05:30:43;;;;;;;;;28.00;27.25;;;;;18.53;52.13;101390.63;5042536;28;45572;-74
2022/05/10 05:33:10;;;;;;;;;32.00;29.50;;;;;19.14;52.31;101489.34;5056434;28;45413;-75
2022/05/10 05:35:36;;;;;;;;;31.75;27.50;;;;;18.62;52.32;101398.41;5057081;28;46464;-73
2022/05/10 05:38:03;;;;;;;;;28.50;26.25;;;;;18.96;51.97;101456.09;5057489;28;45295;-73
2022/05/10 05:40:28;;;;;;;;;27.00;26.25;;;;;18.87;52.06;101454.53;5057644;28;45366;-74
2022/05/10 05:42:54;;;;;;;;;27.00;24.33;;;;;18.79;52.08;101424.59;5057899;28;45501;-76
2022/05/10 05:45:23;;;;;;;;;26.50;25.75;;;;;19.00;51.87;101465.75;5057494;28;45598;-76
2022/05/10 05:47:50;;;;;;;;;32.50;29.25;;;;;18.26;51.53;101341.69;5055792;28;45458;-74
2022/05/10 05:50:18;;;;;;;;;26.00;25.25;;;;;19.06;51.56;101477.13;5057157;28;45493;-74
2022/05/10 05:52:45;;;;;;;;;31.25;28.75;;;;;18.80;51.66;101434.34;5057895;28;45373;-76
2022/05/10 05:55:11;;;;;;;;;28.25;26.00;;;;;19.19;51.27;101501.59;5056591;28;46286;-74
2022/05/10 05:57:37;;;;;;;;;29.00;23.67;;;;;18.58;51.41;101388.75;5056447;28;45792;-73
2022/05/10 06:00:06;;;;;;;;;26.00;22.33;;;;;18.31;51.19;101331.84;5056858;28;45473;-74
2022/05/10 06:02:32;;;;;;;;;31.50;29.25;;;;;19.27;51.16;101498.81;5056771;28;45345;-73
2022/05/10 06:04:58;;;;;;;;;26.75;26.75;;;;;19.26;51.55;101497.91;5039631;28;48146;-73
2022/05/10 06:07:23;;;;;;;;;32.25;31.25;;;;;18.94;51.30;101450.84;5055377;28;46245;-74
2022/05/10 06:09:49;;;;;;;;;29.00;28.33;;;;;19.23;51.35;101492.69;5056485;28;45409;-74
2022/05/10 06:12:20;;;;;;;;;32.50;29.25;;;;;18.85;51.59;101437.75;5057225;28;45407;-75
2022/05/10 06:14:46;;;;;;;;;28.00;27.25;;;;;19.06;51.68;101476.25;5057152;28;45586;-74
2022/05/10 06:17:13;;;;;;;;;36.00;31.25;;;;;19.20;51.61;101495.41;5039670;28;45790;-75
2022/05/10 06:19:40;;;;;;;;;35.25;31.25;;;;;19.21;51.42;101497.16;5060415;28;45537;-73
2022/05/10 06:22:08;;;;;;;;;32.75;31.50;;;;;19.16;51.68;101491.06;5063816;28;45844;-75
2022/05/10 06:24:34;;;;;;;;;31.50;30.50;;;;;18.59;51.78;101394.03;5063089;28;46488;-74
2022/05/10 06:27:01;;;;;;;;;31.25;30.75;;;;;19.17;51.82;101490.19;5058264;28;45319;-75
2022/05/10 06:29:27;;;;;;;;;32.25;30.75;;;;;18.59;51.55;101399.34;5059504;28;45306;-74
2022/05/10 06:31:53;;;;;;;;;30.00;27.75;;;;;18.65;52.09;101385.97;5058236;28;45347;-75
2022/05/10 06:34:18;;;;;;;;;31.25;29.75;;;;;18.66;51.61;101384.16;5059007;28;46108;-76
2022/05/10 06:36:45;;;;;;;;;34.25;30.00;;;;;19.36;51.74;101495.06;5058129;28;46127;-75
2022/05/10 06:39:10;;;;;;;;;30.00;27.75;;;;;19.40;51.47;101492.28;5057906;28;45330;-75
2022/05/10 06:41:36;;;;;;;;;29.50;29.25;;;;;19.49;51.55;101492.09;5057009;28;45486;-75
2022/05/10 06:44:03;;;;;;;;;29.25;28.50;;;;;19.21;50.71;101421.91;5058374;28;46521;-73
2022/05/10 06:46:32;;;;;;;;;31.50;28.25;;;;;19.33;51.09;101416.31;5060666;28;46049;-75
2022/05/10 06:48:57;;;;;;;;;29.50;27.25;;;;;19.49;50.08;101431.00;5042685;28;45583;-75
2022/05/10 06:51:24;;;;;;;;;28.00;24.67;;;;;19.80;49.94;101459.50;5060105;28;45501;-75
2022/05/10 06:53:51;;;;;;;;;24.67;24.67;;;;;19.35;49.41;101356.06;5058401;28;45564;-75
2022/05/10 06:56:17;;;;;;;;;25.00;21.67;;;;;20.18;48.79;101484.25;5042235;28;45359;-76
2022/05/10 06:58:44;;;;;;;;;28.67;25.00;;;;;20.27;48.27;101483.16;5060862;28;45468;-75
2022/05/10 07:01:12;;;;;;;;;25.67;20.33;;;;;20.41;48.11;101498.75;5061677;28;45588;-74
2022/05/10 07:03:39;;;;;;;;;22.00;22.00;;;;;20.53;47.33;101474.44;5061929;28;46353;-74
2022/05/10 07:06:08;;;;;;;;;21.00;19.00;;;;;20.68;47.19;101482.03;5065588;28;45567;-73
2022/05/10 07:08:34;;;;;;;;;24.00;22.00;;;;;20.38;46.66;101409.22;5060963;28;45481;-76
2022/05/10 07:11:00;;;;;;;;;25.33;24.00;;;;;20.45;46.55;101402.78;5061588;28;45364;-74
2022/05/10 07:13:28;;;;;;;;;20.00;19.67;;;;;20.89;46.22;101458.38;5060808;28;46338;-74
2022/05/10 07:15:54;;;;;;;;;22.00;21.00;;;;;20.86;46.04;101434.50;5062340;28;45348;-76
2022/05/10 07:18:20;;;;;;;;;23.00;18.67;;;;;21.11;45.99;101459.47;5064669;28;45789;-74
2022/05/10 07:20:48;;;;;;;;;17.33;17.33;;;;;20.87;45.26;101396.31;5063752;28;45540;-74
2022/05/10 07:23:14;;;;;;;;;21.00;20.00;;;;;21.46;45.59;101468.19;5045538;28;46877;-75
2022/05/10 07:25:40;;;;;;;;;19.33;17.33;;;;;21.29;45.13;101436.72;5064190;28;45339;-74
2022/05/10 07:28:07;;;;;;;;;19.67;19.00;;;;;21.36;45.20;101430.28;5064014;28;45439;-74
2022/05/10 07:30:34;;;;;;;;;22.67;19.67;;;;;21.04;44.83;101369.16;5065154;28;45592;-74
2022/05/10 07:33:00;;;;;;;;;21.00;18.00;;;;;21.59;44.65;101445.56;5063785;28;45569;-73
2022/05/10 07:38:14;;;;;;;;;19.33;19.33;;;;;21.62;44.43;101436.59;5061198;28;45685;-75
2022/05/10 07:40:40;;;;;;;;;21.33;19.67;;;;;21.84;44.60;101470.53;5064047;28;45343;-74
2022/05/10 07:43:06;;;;;;;;;18.00;18.00;;;;;21.91;44.16;101459.63;5045291;28;48379;-73
2022/05/10 07:45:32;;;;;;;;;19.00;19.00;;;;;21.39;44.22;101379.56;5045839;28;45481;-75
2022/05/10 07:47:58;;;;;;;;;18.00;17.67;;;;;22.02;44.05;101469.94;5062361;28;45488;-74
2022/05/10 07:50:24;;;;;;;;;18.67;18.33;;;;;21.93;43.82;101439.09;5060874;28;45943;-74
2022/05/10 07:52:50;;;;;;;;;19.67;18.67;;;;;22.09;43.92;101458.13;5041725;28;46677;-75
2022/05/10 07:55:16;;;;;;;;;20.33;20.33;;;;;21.65;44.07;101380.50;5059440;28;45446;-75
2022/05/10 07:57:43;;;;;;;;;21.00;19.00;;;;;21.78;44.08;101403.19;5060832;28;45398;-75
2022/05/10 08:00:14;;;;;;;;;19.67;19.33;;;;;22.19;43.74;101464.00;5060834;28;45462;-75
2022/05/10 08:02:43;;;;;;;;;22.67;20.00;;;;;21.75;43.38;101365.06;5059759;28;45405;-74
2022/05/10 08:05:10;;;;;;;;;19.67;15.33;;;;;22.38;43.44;101457.13;5059742;28;45316;-75
2022/05/10 08:07:39;;;;;;;;;20.33;20.33;;;;;22.39;43.13;101442.84;5059681;28;45396;-76
2022/05/10 08:10:05;;;;;;;;;25.00;24.33;;;;;22.28;43.13;101412.13;5059754;28;45575;-75
2022/05/10 08:12:37;;;;;;;;;19.33;19.33;;;;;22.38;42.87;101409.09;5060082;28;45595;-76
2022/05/10 08:15:06;;;;;;;;;22.33;20.67;;;;;22.73;42.82;101457.66;5058577;28;45357;-74
2022/05/10 08:17:32;;;;;;;;;18.33;16.33;;;;;22.10;42.55;101337.16;5042367;28;45462;-75
2022/05/10 08:19:57;;;;;;;;;17.67;17.33;;;;;22.19;42.41;101341.28;5061550;28;45355;-74
2022/05/10 08:22:23;;;;;;;;;18.33;15.67;;;;;22.94;42.17;101463.09;5059215;28;45466;-73
2022/05/10 08:24:49;;;;;;;;;13.00;13.00;;;;;22.43;42.53;101366.22;5040020;28;45481;-74
2022/05/10 08:27:14;;;;;;;;;18.67;18.67;;;;;22.94;42.19;101455.06;5058581;28;45331;-75
2022/05/10 08:29:42;;;;;;;;;22.00;19.00;;;;;22.78;41.78;101412.03;5058954;28;45373;-74
2022/05/10 08:32:08;;;;;;;;;16.33;16.00;;;;;23.11;41.82;101470.50;5058629;28;46100;-75
2022/05/10 08:34:35;;;;;;;;;16.67;15.67;;;;;22.61;41.94;101384.22;5058975;28;45588;-75
2022/05/10 08:37:05;;;;;;;;;18.33;17.33;;;;;22.50;41.87;101343.69;5058365;28;45431;-73
2022/05/10 08:39:31;;;;;;;;;17.33;16.33;;;;;22.86;41.57;101402.81;5058914;28;45222;-74
2022/05/10 08:42:01;;;;;;;;;17.33;17.33;;;;;22.82;41.29;101386.97;5058730;28;46730;-73
2022/05/10 08:44:31;;;;;;;;;24.00;20.00;;;;;22.43;41.40;101324.38;5059959;28;45387;-75
2022/05/10 08:47:00;;;;;;;;;16.33;15.00;;;;;23.18;41.60;101431.91;5058533;28;45415;-74
2022/05/10 08:49:26;;;;;;;;;15.00;15.00;;;;;23.45;41.26;101454.00;5058907;28;45427;-75
2022/05/10 08:51:52;;;;;;;;;16.67;15.33;;;;;23.38;41.23;101420.44;5058349;28;45549;-75
2022/05/10 08:54:18;;;;;;;;;18.00;16.67;;;;;23.67;40.92;101459.34;5058469;28;45485;-74
2022/05/10 08:56:53;;;;;;;;;16.33;16.33;;;;;23.12;40.68;101347.53;5058407;28;45252;-76
2022/05/10 08:59:40;;;;;;;;;18.33;17.67;;;;;23.84;40.74;101450.63;5058670;28;45452;-74
2022/05/10 09:02:24;;;;;;;;;16.67;15.33;;;;;23.91;40.40;101446.78;5058200;28;45489;-75
2022/05/10 09:05:02;;;;;;;;;17.33;17.33;;;;;23.97;40.07;101449.19;5059572;28;45421;-75
2022/05/10 09:07:39;;;;;;;;;17.00;14.33;;;;;23.63;40.02;101375.72;5058603;28;45334;-73
2022/05/10 09:10:27;;;;;;;;;13.67;13.67;;;;;23.83;39.61;101398.09;5041010;28;45592;-74
2022/05/10 09:13:05;;;;;;;;;17.67;15.00;;;;;23.94;39.07;101401.16;5057379;28;46314;-74
2022/05/10 09:15:36;;;;;;;;;16.00;16.00;;;;;24.16;39.19;101416.28;5057977;28;45460;-74
2022/05/10 09:18:12;;;;;;;;;17.00;16.67;;;;;24.07;38.98;101391.66;5058271;28;45405;-75
2022/05/10 09:20:45;;;;;;;;;15.00;14.67;;;;;24.27;38.83;101406.81;5058599;28;45337;-74
2022/05/10 09:23:19;;;;;;;;;17.00;16.33;;;;;23.99;38.03;101360.81;5057664;28;45454;-75
2022/05/10 09:25:45;;;;;;;;;13.67;12.67;;;;;24.55;38.31;101437.75;5039868;28;45389;-76
2022/05/10 09:28:28;;;;;;;;;14.33;13.33;;;;;24.68;38.25;101432.72;5057535;28;45565;-75
2022/05/10 09:36:31;;;;;;;;;15.67;14.33;;;;;24.78;37.06;101409.91;5058117;28;45874;-73
2022/05/10 09:39:34;;;;;;;;;14.33;14.33;;;;;24.80;37.31;101401.81;5058303;28;45384;-72
2022/05/10 09:42:00;;;;;;;;;14.00;13.33;;;;;24.69;37.25;101372.84;5058173;28;45433;-77
2022/05/10 09:44:27;;;;;;;;;16.00;15.33;;;;;25.00;37.20;101408.91;5057965;28;46377;-75
2022/05/10 09:47:14;;;;;;;;;15.00;14.67;;;;;25.06;36.50;101414.84;5045376;28;45543;-79
2022/05/10 09:49:40;;;;;;;;;19.33;19.33;;;;;25.14;36.79;101406.41;5058512;28;45742;-75
2022/05/10 09:52:16;;;;;;;;;17.00;15.67;;;;;25.29;36.42;101424.47;5039812;28;45554;-75
2022/05/10 09:54:45;;;;;;;;;25.67;20.33;;;;;25.31;36.39;101406.50;5056846;28;45371;-76
2022/05/10 09:57:31;;;;;;;;;20.33;17.00;;;;;25.26;36.51;101389.78;5057175;28;45422;-74
2022/05/10 09:59:56;;;;;;;;;15.33;15.33;;;;;25.10;36.73;101352.09;5039199;28;45318;-74
2022/05/10 10:02:34;;;;;;;;;16.67;14.00;;;;;25.49;36.75;101414.59;5039257;28;45552;-75
2022/05/10 10:05:19;;;;;;;;;17.33;15.00;;;;;25.53;35.56;101418.84;5056684;28;45439;-74
2022/05/10 10:07:54;;;;;;;;;17.33;15.00;;;;;25.15;35.34;101344.72;5055608;28;45514;-76
2022/05/10 10:10:28;;;;;;;;;11.00;11.00;;;;;25.44;35.42;101392.47;5056074;28;45482;-75
2022/05/10 10:12:54;;;;;;;;;16.33;16.00;;;;;25.24;35.60;101330.00;5056987;28;46072;-74
2022/05/10 10:15:42;;;;;;;;;16.33;15.67;;;;;25.69;35.24;101395.66;5035063;28;46872;-77
2022/05/10 10:18:31;;;;;;;;;15.00;13.67;;;;;25.60;34.81;101364.81;5049965;28;45474;-76
2022/05/10 10:20:57;;;;;;;;;15.67;14.00;;;;;25.82;34.98;101377.13;5055750;28;45881;-76
2022/05/10 10:23:41;;;;;;;;;16.00;15.00;;;;;25.80;35.08;101363.78;5057297;28;45193;-74
2022/05/10 10:26:45;;;;;;;;;16.00;14.33;;;;;26.09;34.56;101404.38;5056787;28;46278;-75
2022/05/10 10:29:37;;;;;;;;;12.67;12.67;;;;;25.40;34.10;101263.06;5038150;28;45568;-73
2022/05/10 10:32:29;;;;;;;;;16.67;15.33;;;;;26.24;33.60;101402.69;5038019;28;45417;-75
2022/05/10 10:35:24;;;;;;;;;12.33;12.33;;;;;26.18;33.71;101381.56;5039324;28;45449;-76
2022/05/10 10:37:56;;;;;;;;;15.00;13.33;;;;;26.43;33.11;101397.19;5048297;28;45589;-76
2022/05/10 10:40:24;;;;;;;;;17.67;17.67;;;;;26.58;33.56;101404.47;5056798;28;45385;-77
2022/05/10 10:43:05;;;;;;;;;14.33;14.33;;;;;26.51;32.87;101372.63;5055650;28;46524;-74
2022/05/10 10:45:54;;;;;;;;;18.00;17.33;;;;;26.79;32.78;101391.69;5059613;28;45358;-73
2022/05/10 10:48:40;;;;;;;;;15.67;12.67;;;;;26.85;33.08;101385.09;5049104;28;45402;-75
2022/05/10 10:51:08;;;;;;;;;14.67;14.67;;;;;26.83;32.65;101357.41;5054663;28;45370;-73
2022/05/10 10:53:35;;;;;;;;;14.33;14.33;;;;;27.11;32.25;101390.81;5031677;28;45447;-73
2022/05/10 10:56:15;;;;;;;;;16.00;13.33;;;;;27.12;32.27;101395.22;5036662;28;45520;-74
2022/05/10 10:59:07;;;;;;;;;13.33;12.00;;;;;27.03;32.24;101372.44;5055788;28;46396;-74
2022/05/10 11:02:17;;;;;;;;;20.00;19.33;;;;;27.18;32.33;101392.19;5055266;28;45255;-71
2022/05/10 11:05:13;;;;;;;;;16.00;15.00;;;;;27.20;32.12;101398.38;5055314;28;45386;-76
2022/05/10 11:07:57;;;;;;;;;15.00;15.00;;;;;27.22;31.87;101385.72;5056500;28;45640;-75
2022/05/10 11:10:41;;;;;;;;;17.00;14.00;;;;;27.05;31.85;101360.63;5055454;28;45702;-75
2022/05/10 11:13:38;;;;;;;;;15.33;15.33;;;;;27.20;31.98;101388.50;5036726;28;45851;-78
2022/05/10 11:16:14;;;;;;;;;13.00;12.33;;;;;27.24;32.17;101371.22;5040387;28;45912;-73
2022/05/10 11:19:13;;;;;;;;;14.33;14.33;;;;;27.01;32.24;101316.06;5055468;28;45485;-74
2022/05/10 11:21:57;;;;;;;;;10.67;10.67;;;;;27.24;32.46;101338.97;5036879;28;46330;-75
2022/05/10 11:24:38;;;;;;;;;12.33;12.33;;;;;27.43;31.91;101357.56;5050577;28;45580;-73
2022/05/10 11:27:12;;;;;;;;;15.33;14.33;;;;;27.46;31.77;101354.69;5055485;28;45434;-74
2022/05/10 11:30:10;;;;;;;;;15.00;13.67;;;;;27.42;31.26;101338.81;5055149;28;46016;-75
2022/05/10 11:33:02;;;;;;;;;15.33;14.00;;;;;27.54;31.13;101351.53;5053756;28;45463;-73
2022/05/10 11:36:02;;;;;;;;;14.67;13.33;;;;;27.59;30.93;101348.56;5039115;28;45581;-73
2022/05/10 11:39:03;;;;;;;;;10.67;10.67;;;;;27.01;30.64;101248.00;5039829;28;45509;-74
2022/05/10 11:41:34;;;;;;;;;15.00;13.67;;;;;27.56;30.74;101349.63;5058067;28;45624;-73